createdAt,value
2023-01-19T05:06:27.154Z,6.18
2023-01-19T05:09:29.688Z,6.18
2023-01-19T05:12:32.130Z,5.89
2023-01-19T05:15:34.533Z,5.82
2023-01-19T05:18:37.103Z,5.77
2023-01-19T05:21:39.473Z,5.73
2023-01-19T05:24:41.578Z,5.96
2023-01-19T05:27:44.705Z,5.86
2023-01-19T05:30:46.803Z,5.73
2023-01-19T05:33:49.549Z,5.75
2023-01-19T05:36:51.805Z,5.74
2023-01-19T05:39:54.728Z,5.81
2023-01-19T05:43:00.844Z,5.73
2023-01-19T05:46:05.295Z,6.06
2023-01-19T05:49:07.892Z,5.99
2023-01-19T05:52:10.254Z,6.12
2023-01-19T05:55:12.471Z,6.48
2023-01-19T05:58:14.854Z,6.56
2023-01-19T06:01:17.006Z,6.24
2023-01-19T06:04:20.646Z,6.37
2023-01-19T06:07:24.485Z,6.26
2023-01-19T06:10:27.772Z,6.14
2023-01-19T06:13:29.899Z,6.43
2023-01-19T06:16:32.520Z,6.28
2023-01-19T06:19:35.109Z,6.41
2023-01-19T06:22:37.946Z,6.29
2023-01-19T06:25:40.069Z,6.27
2023-01-19T06:28:42.527Z,6.08
2023-01-19T06:31:44.738Z,6.17
2023-01-19T06:34:47.324Z,6.04
2023-01-19T06:37:49.470Z,6.14
2023-01-19T06:40:54.836Z,5.90
2023-01-19T06:43:56.961Z,5.98
2023-01-19T06:47:14.920Z,6.29
2023-01-19T06:50:18.374Z,6.24
2023-01-19T06:53:22.202Z,5.91
2023-01-19T06:56:24.356Z,5.80
2023-01-19T06:59:27.057Z,5.83
2023-01-19T07:02:29.271Z,5.81
2023-01-19T07:05:31.753Z,5.61
2023-01-19T07:08:35.352Z,5.80
2023-01-19T07:11:37.741Z,5.85
2023-01-19T07:14:40.164Z,5.92
2023-01-19T07:17:43.353Z,5.83
2023-01-19T07:20:46.871Z,6.16
2023-01-19T07:23:52.980Z,6.07
2023-01-19T07:26:55.094Z,6.11
2023-01-19T07:29:57.790Z,6.04
2023-01-19T07:33:02.740Z,6.09
2023-01-19T07:36:05.749Z,5.97
2023-01-19T07:39:07.834Z,6.23
2023-01-19T07:42:10.223Z,6.22
2023-01-19T07:45:12.373Z,6.21
2023-01-19T07:48:14.786Z,6.02
2023-01-19T07:51:19.601Z,5.97
2023-01-19T07:54:22.824Z,6.05
2023-01-19T07:57:25.063Z,6.29
2023-01-19T08:00:28.870Z,6.35
2023-01-19T08:03:31.228Z,6.47
2023-01-19T08:06:35.856Z,6.47
2023-01-19T08:09:38.216Z,6.59
2023-01-19T08:12:44.232Z,6.48
2023-01-19T08:15:53.316Z,6.35
2023-01-19T08:18:56.098Z,6.19
2023-01-19T08:21:59.870Z,6.33
2023-01-19T08:25:01.989Z,6.29
2023-01-19T08:28:06.295Z,6.37
2023-01-19T08:31:19.763Z,6.57
2023-01-19T08:34:24.352Z,6.25
2023-01-19T08:37:27.900Z,6.32
2023-01-19T08:40:34.800Z,6.34
2023-01-19T08:43:37.963Z,6.49
2023-01-19T08:46:41.108Z,6.92
2023-01-19T08:49:43.373Z,6.77
2023-01-19T08:52:45.821Z,6.72
2023-01-19T08:55:48.045Z,6.92
2023-01-19T08:59:03.429Z,6.55
2023-01-19T09:02:11.086Z,6.47
2023-01-19T09:05:13.616Z,6.43
2023-01-19T09:08:17.003Z,6.47
2023-01-19T09:11:19.777Z,6.29
2023-01-19T09:14:21.957Z,6.56
2023-01-19T09:17:24.644Z,6.65
2023-01-19T09:20:26.766Z,6.66
2023-01-19T09:23:31.822Z,6.42
2023-01-19T09:26:34.121Z,6.28
2023-01-19T09:29:36.587Z,6.08
2023-01-19T09:32:38.666Z,6.23
2023-01-19T09:35:42.005Z,6.27
2023-01-19T09:38:44.166Z,6.37
2023-01-19T09:41:52.088Z,6.42
2023-01-19T09:44:54.454Z,6.31
2023-01-19T09:47:59.930Z,6.23
2023-01-19T09:51:08.501Z,6.19
2023-01-19T09:54:16.466Z,6.23
2023-01-19T09:57:19.010Z,6.42
2023-01-19T10:00:23.297Z,6.43
2023-01-19T10:03:27.060Z,6.28
2023-01-19T10:06:29.362Z,6.14
2023-01-19T10:09:47.612Z,5.94
2023-01-19T10:13:14.233Z,6.00
2023-01-19T10:16:25.620Z,6.11
2023-01-19T10:19:46.699Z,6.10
2023-01-19T10:22:50.424Z,6.24
2023-01-19T10:25:54.401Z,6.05
2023-01-19T10:29:05.586Z,6.12
2023-01-19T10:32:13.725Z,6.22
2023-01-19T10:35:23.469Z,6.20
2023-01-19T10:38:27.737Z,6.19
2023-01-19T10:41:41.643Z,6.37
2023-01-19T10:44:45.789Z,6.47
2023-01-19T10:47:49.749Z,6.25
2023-01-19T10:51:03.650Z,6.10
2023-01-19T10:54:13.112Z,6.18
2023-01-19T10:57:28.177Z,6.49
2023-01-19T11:00:33.545Z,6.33
2023-01-19T11:03:35.721Z,6.30
2023-01-19T11:06:38.066Z,6.19
2023-01-19T11:09:40.246Z,6.16
2023-01-19T11:13:04.367Z,6.14
2023-01-19T11:16:11.574Z,6.30
2023-01-19T11:19:21.690Z,6.25
2023-01-19T11:22:28.746Z,6.19
2023-01-19T11:25:34.285Z,6.23
2023-01-19T11:28:49.139Z,6.16
2023-01-19T11:31:52.822Z,6.19
2023-01-19T11:34:54.957Z,6.28
2023-01-19T11:38:12.302Z,6.19
2023-01-19T11:41:41.141Z,6.20
2023-01-19T11:44:50.870Z,6.13
2023-01-19T11:47:53.026Z,6.18
2023-01-19T11:50:59.743Z,6.29
2023-01-19T11:54:06.908Z,6.28
2023-01-19T11:57:20.139Z,6.23
2023-01-19T12:00:25.330Z,6.38
2023-01-19T12:03:33.744Z,6.43
2023-01-19T12:06:41.556Z,6.39
2023-01-19T12:09:47.654Z,6.33
2023-01-19T12:12:51.534Z,6.40
2023-01-19T12:16:05.283Z,6.44
2023-01-19T12:19:18.440Z,6.33
2023-01-19T12:22:22.528Z,6.28
2023-01-19T12:25:59.600Z,6.19
2023-01-19T12:29:13.286Z,6.30
2023-01-19T12:32:18.218Z,6.29
2023-01-19T12:35:57.629Z,6.32
2023-01-19T12:39:06.502Z,6.15
2023-01-19T12:42:15.829Z,6.40
2023-01-19T12:45:24.154Z,6.27
2023-01-19T12:48:27.595Z,6.21
2023-01-19T12:51:29.851Z,6.20
2023-01-19T12:54:33.360Z,6.21
2023-01-19T12:57:40.894Z,6.11
2023-01-19T13:00:45.755Z,6.17
2023-01-19T13:04:09.565Z,6.15
2023-01-19T13:07:16.800Z,5.86
2023-01-19T13:10:56.604Z,6.04
2023-01-19T13:13:58.904Z,6.11
2023-01-19T13:17:04.368Z,6.06
2023-01-19T13:20:18.772Z,6.05
2023-01-19T13:23:24.311Z,5.92
2023-01-19T13:26:53.243Z,5.94
2023-01-19T13:29:55.504Z,5.93
2023-01-19T13:33:06.397Z,5.81
2023-01-19T13:36:20.783Z,5.87
2023-01-19T13:39:28.676Z,5.93
2023-01-19T13:42:36.503Z,5.84
2023-01-19T13:45:41.408Z,5.94
2023-01-19T13:48:55.572Z,5.84
2023-01-19T13:52:20.678Z,5.91
2023-01-19T13:55:23.948Z,5.78
2023-01-19T13:58:28.019Z,5.83
2023-01-19T14:01:31.229Z,5.78
2023-01-19T14:04:34.121Z,5.67
2023-01-19T14:07:36.291Z,5.45
2023-01-19T14:11:02.377Z,5.34
2023-01-19T14:14:04.691Z,5.23
2023-01-19T14:17:21.982Z,5.24
2023-01-19T14:20:29.644Z,5.19
2023-01-19T14:24:07.381Z,5.24
2023-01-19T14:27:22.689Z,5.26
2023-01-19T14:30:29.075Z,5.44
2023-01-19T14:33:36.582Z,5.49
2023-01-19T14:36:41.961Z,5.43
2023-01-19T14:39:46.634Z,5.51
2023-01-19T14:42:53.590Z,5.67
2023-01-19T14:45:56.089Z,5.60
2023-01-19T14:49:03.007Z,5.63
2023-01-19T14:52:16.595Z,5.72
2023-01-19T14:55:28.721Z,5.65
2023-01-19T14:58:33.953Z,5.70
2023-01-19T15:01:38.997Z,5.61
2023-01-19T15:04:41.263Z,5.69
2023-01-19T15:07:46.334Z,5.70
2023-01-19T15:10:48.490Z,5.67
2023-01-19T15:13:51.284Z,5.72
2023-01-19T15:16:53.605Z,5.54
2023-01-19T15:19:56.418Z,5.72
2023-01-19T15:22:58.605Z,5.63
2023-01-19T15:26:03.577Z,5.75
2023-01-19T15:29:24.592Z,5.58
2023-01-19T15:32:26.968Z,5.29
2023-01-19T15:35:29.045Z,5.18
2023-01-19T15:38:31.405Z,5.08
2023-01-19T15:41:33.781Z,5.17
2023-01-19T15:44:36.135Z,5.04
2023-01-19T15:47:38.246Z,4.94
2023-01-19T15:50:42.710Z,5.08
2023-01-19T15:53:45.086Z,4.89
2023-01-19T15:56:47.597Z,4.99
2023-01-19T15:59:51.357Z,4.91
2023-01-19T16:02:53.861Z,4.98
2023-01-19T16:06:00.198Z,4.87
2023-01-19T16:09:03.810Z,5.03
2023-01-19T16:12:06.353Z,5.01
2023-01-19T16:15:09.194Z,5.19
2023-01-19T16:18:11.793Z,5.28
2023-01-19T16:21:14.326Z,5.41
2023-01-19T16:24:16.774Z,5.53
2023-01-19T16:27:19.047Z,5.39
2023-01-19T16:30:21.640Z,5.38
2023-01-19T16:33:23.815Z,5.14
2023-01-19T16:36:31.654Z,5.54
2023-01-19T16:39:34.025Z,5.70
2023-01-19T16:42:36.444Z,5.64
